createdAt,value
2017-10-08T00:00:13.991Z,88.00
2017-10-08T00:01:17.286Z,88.30
2017-10-08T00:02:20.583Z,88.10
2017-10-08T00:03:23.142Z,88.10
2017-10-08T00:04:25.666Z,88.10
2017-10-08T00:05:28.237Z,88.40
2017-10-08T00:06:30.758Z,88.60
2017-10-08T00:07:33.273Z,88.60
2017-10-08T00:08:35.789Z,88.60
2017-10-08T00:09:38.305Z,88.60
2017-10-08T00:10:40.860Z,88.60
2017-10-08T00:11:43.372Z,88.80
2017-10-08T00:12:45.925Z,89.10
2017-10-08T00:13:49.220Z,89.00
2017-10-08T00:14:51.749Z,89.00
2017-10-08T00:15:54.265Z,89.00
2017-10-08T00:16:56.789Z,89.10
2017-10-08T00:17:59.345Z,89.30
2017-10-08T00:19:01.874Z,89.20
2017-10-08T00:20:04.392Z,89.30
2017-10-08T00:21:06.909Z,89.60
2017-10-08T00:22:09.459Z,89.80
2017-10-08T00:23:12.014Z,89.70
2017-10-08T00:24:14.537Z,89.80
2017-10-08T00:25:17.059Z,89.90
2017-10-08T00:26:19.834Z,90.00
2017-10-08T00:27:22.346Z,90.00
2017-10-08T00:28:24.908Z,89.70
2017-10-08T00:29:27.461Z,89.60
2017-10-08T00:30:29.971Z,89.50
2017-10-08T00:31:33.267Z,89.10
2017-10-08T00:32:35.788Z,89.10
2017-10-08T00:33:38.340Z,89.30
2017-10-08T00:34:40.885Z,89.40
2017-10-08T00:35:43.479Z,89.00
2017-10-08T00:36:46.030Z,88.90
2017-10-08T00:37:48.669Z,88.90
2017-10-08T00:38:51.190Z,89.20
2017-10-08T00:39:53.750Z,88.90
2017-10-08T00:40:56.322Z,88.80
2017-10-08T00:41:58.882Z,89.00
2017-10-08T00:43:01.412Z,88.90
2017-10-08T00:44:03.933Z,89.00
2017-10-08T00:45:07.225Z,89.30
2017-10-08T00:46:10.551Z,89.20
2017-10-08T00:47:13.098Z,89.20
2017-10-08T00:48:15.610Z,89.00
2017-10-08T00:49:18.146Z,88.90
2017-10-08T00:50:20.672Z,89.20
2017-10-08T00:51:23.982Z,89.20
2017-10-08T00:52:26.533Z,89.20
2017-10-08T00:53:29.819Z,89.00
2017-10-08T00:54:33.098Z,89.30
2017-10-08T00:55:36.381Z,88.80
2017-10-08T00:56:39.666Z,89.00
2017-10-08T00:57:42.985Z,89.10
2017-10-08T00:58:45.505Z,89.00
2017-10-08T00:59:48.799Z,88.80
2017-10-08T01:00:52.078Z,89.00
2017-10-08T01:01:55.363Z,89.10
2017-10-08T01:02:58.673Z,89.10
2017-10-08T01:04:01.197Z,89.10
2017-10-08T01:05:03.753Z,89.00
2017-10-08T01:06:06.313Z,89.80
2017-10-08T01:07:08.828Z,88.90
2017-10-08T01:08:11.397Z,88.80
2017-10-08T01:09:13.940Z,88.60
2017-10-08T01:10:17.218Z,89.20
2017-10-08T01:11:20.507Z,89.50
2017-10-08T01:12:23.807Z,89.40
2017-10-08T01:13:26.373Z,89.20
2017-10-08T01:14:28.893Z,89.50
2017-10-08T01:15:31.406Z,89.60
2017-10-08T01:16:33.927Z,89.60
2017-10-08T01:17:36.462Z,89.30
2017-10-08T01:18:39.026Z,89.50
2017-10-08T01:19:41.550Z,89.40
2017-10-08T01:20:44.832Z,89.50
2017-10-08T01:21:48.119Z,89.50
2017-10-08T01:22:51.398Z,89.60
2017-10-08T01:23:54.846Z,89.40
2017-10-08T01:24:57.380Z,89.40
2017-10-08T01:25:59.932Z,89.20
2017-10-08T01:27:03.217Z,88.90
2017-10-08T01:28:06.541Z,89.40
2017-10-08T01:29:09.066Z,89.40
2017-10-08T01:30:11.594Z,89.70
2017-10-08T01:31:14.112Z,89.40
2017-10-08T01:32:16.622Z,89.60
2017-10-08T01:33:19.174Z,89.80
2017-10-08T01:34:21.701Z,89.60
2017-10-08T01:35:24.229Z,89.70
2017-10-08T01:36:26.796Z,89.50
2017-10-08T01:37:29.326Z,89.60
2017-10-08T01:38:31.840Z,89.90
2017-10-08T01:39:35.141Z,89.50
2017-10-08T01:40:38.433Z,89.40
2017-10-08T01:41:41.057Z,89.50
2017-10-08T01:42:43.584Z,89.50
2017-10-08T01:43:46.101Z,89.60
2017-10-08T01:44:48.621Z,89.70
2017-10-08T01:45:51.164Z,89.90
2017-10-08T01:46:53.721Z,89.80
2017-10-08T01:47:57.027Z,90.00
2017-10-08T01:48:59.555Z,90.00
2017-10-08T01:50:02.083Z,90.00
2017-10-08T01:51:04.619Z,89.80
2017-10-08T01:52:07.178Z,89.70
2017-10-08T01:53:09.690Z,89.40
2017-10-08T01:54:12.223Z,89.60
2017-10-08T01:55:14.734Z,89.30
2017-10-08T01:56:17.371Z,89.20
2017-10-08T01:57:19.961Z,89.10
2017-10-08T01:58:22.486Z,89.30
2017-10-08T01:59:25.003Z,89.60
2017-10-08T02:00:27.530Z,89.50
2017-10-08T02:01:30.045Z,89.40
2017-10-08T02:02:32.596Z,89.60
2017-10-08T02:03:35.111Z,89.60
2017-10-08T02:04:37.677Z,89.70
2017-10-08T02:05:40.203Z,89.60
2017-10-08T02:06:43.503Z,89.20
2017-10-08T02:07:46.789Z,89.10
2017-10-08T02:08:50.073Z,89.30
2017-10-08T02:09:53.399Z,89.30
2017-10-08T02:10:55.918Z,89.30
2017-10-08T02:11:58.457Z,89.50
2017-10-08T02:13:00.989Z,89.20
2017-10-08T02:14:03.518Z,89.50
2017-10-08T02:15:06.845Z,89.70
2017-10-08T02:16:09.381Z,89.70
2017-10-08T02:17:11.913Z,89.50
2017-10-08T02:18:14.441Z,89.40
2017-10-08T02:19:16.985Z,89.60
2017-10-08T02:20:19.537Z,89.70
2017-10-08T02:21:22.823Z,89.70
2017-10-08T02:22:26.109Z,89.70
2017-10-08T02:23:29.409Z,89.60
2017-10-08T02:24:31.941Z,89.60
2017-10-08T02:25:35.265Z,89.90
2017-10-08T02:26:37.783Z,89.90
2017-10-08T02:27:40.314Z,89.60
2017-10-08T02:28:42.886Z,89.70
2017-10-08T02:29:45.447Z,89.60
2017-10-08T02:30:47.976Z,89.70
2017-10-08T02:31:50.503Z,90.00
2017-10-08T02:32:53.024Z,89.60
2017-10-08T02:33:55.563Z,89.60
2017-10-08T02:34:58.881Z,89.30
2017-10-08T02:36:01.419Z,89.30
2017-10-08T02:37:03.966Z,89.50
2017-10-08T02:38:06.485Z,89.30
2017-10-08T02:39:09.016Z,89.20
2017-10-08T02:40:11.549Z,89.60
2017-10-08T02:41:14.080Z,89.50
2017-10-08T02:42:16.645Z,89.70
2017-10-08T02:43:19.933Z,89.50
2017-10-08T02:44:22.457Z,89.50
2017-10-08T02:45:25.817Z,89.90
2017-10-08T02:46:28.347Z,89.20
2017-10-08T02:47:30.911Z,89.30
2017-10-08T02:48:33.441Z,89.20
2017-10-08T02:49:35.967Z,89.40
2017-10-08T02:50:38.521Z,89.50
2017-10-08T02:51:41.049Z,89.40
2017-10-08T02:52:43.574Z,89.70
2017-10-08T02:53:46.137Z,89.60
2017-10-08T02:54:48.657Z,89.90
2017-10-08T02:55:51.190Z,89.50
2017-10-08T02:56:53.715Z,89.50
2017-10-08T02:57:56.261Z,89.60
2017-10-08T02:58:58.811Z,89.60
2017-10-08T03:00:01.345Z,89.40
2017-10-08T03:01:03.910Z,89.60
2017-10-08T03:02:06.433Z,89.50
2017-10-08T03:03:08.951Z,89.40
2017-10-08T03:04:11.483Z,89.80
2017-10-08T03:05:13.999Z,89.60
2017-10-08T03:06:16.542Z,89.40
2017-10-08T03:07:19.077Z,89.30
2017-10-08T03:08:21.643Z,89.40
2017-10-08T03:09:24.166Z,89.40
2017-10-08T03:10:26.679Z,89.30
2017-10-08T03:11:29.205Z,89.10
2017-10-08T03:12:31.749Z,89.40
2017-10-08T03:13:34.261Z,89.00
2017-10-08T03:14:36.784Z,88.80
2017-10-08T03:15:39.313Z,88.50
2017-10-08T03:16:41.876Z,88.20
2017-10-08T03:17:44.393Z,88.30
2017-10-08T03:18:46.905Z,88.40
2017-10-08T03:19:49.415Z,88.60
2017-10-08T03:20:51.925Z,88.60
2017-10-08T03:21:54.491Z,88.90
2017-10-08T03:22:57.010Z,88.60
2017-10-08T03:23:59.531Z,88.70
2017-10-08T03:25:02.055Z,88.50
2017-10-08T03:26:04.582Z,88.30
2017-10-08T03:27:07.141Z,88.20
2017-10-08T03:28:09.665Z,88.10
2017-10-08T03:29:12.197Z,88.10
2017-10-08T03:30:15.515Z,88.80
2017-10-08T03:31:18.031Z,88.40
2017-10-08T03:32:20.598Z,88.10
2017-10-08T03:33:23.113Z,88.10
2017-10-08T03:34:25.636Z,88.20
2017-10-08T03:35:28.172Z,88.20
2017-10-08T03:36:30.705Z,88.20
2017-10-08T03:37:33.265Z,88.50
2017-10-08T03:38:35.793Z,88.30
2017-10-08T03:39:38.313Z,88.50
2017-10-08T03:40:40.876Z,88.60
2017-10-08T03:41:43.397Z,88.70
2017-10-08T03:42:45.918Z,88.70
2017-10-08T03:43:48.457Z,88.60
2017-10-08T03:44:51.736Z,88.60
2017-10-08T03:45:55.066Z,88.60
2017-10-08T03:46:57.597Z,88.50
2017-10-08T03:48:00.137Z,88.20
2017-10-08T03:49:03.416Z,88.40
2017-10-08T03:50:06.702Z,88.00
2017-10-08T03:51:09.260Z,88.10
2017-10-08T03:52:11.784Z,88.20
2017-10-08T03:53:14.306Z,88.20
2017-10-08T03:54:17.613Z,88.20
2017-10-08T03:55:20.153Z,88.10
2017-10-08T03:56:22.710Z,88.20
2017-10-08T03:58:34.122Z,88.20
2017-10-08T03:59:36.643Z,88.00
2017-10-08T04:00:39.206Z,88.00
2017-10-08T04:01:41.726Z,87.90
2017-10-08T04:02:44.291Z,87.90
2017-10-08T04:03:46.812Z,87.90
2017-10-08T04:04:49.335Z,88.00
2017-10-08T04:05:51.845Z,88.10
2017-10-08T04:06:54.363Z,88.10
2017-10-08T04:07:56.913Z,88.40
2017-10-08T04:08:59.447Z,88.40
2017-10-08T04:10:01.979Z,88.50
2017-10-08T04:11:04.497Z,88.60
2017-10-08T04:12:07.024Z,88.60
2017-10-08T04:13:09.582Z,88.70
2017-10-08T04:14:12.108Z,88.70
2017-10-08T04:15:14.639Z,88.80
2017-10-08T04:16:17.191Z,88.80
2017-10-08T04:17:19.728Z,88.70
2017-10-08T04:18:22.276Z,88.60
2017-10-08T04:19:24.834Z,88.60
2017-10-08T04:20:28.127Z,88.70
2017-10-08T04:21:30.658Z,88.70
2017-10-08T04:22:33.181Z,88.90
2017-10-08T04:23:35.741Z,88.80
2017-10-08T04:24:38.254Z,88.60
2017-10-08T04:25:40.773Z,88.80
2017-10-08T04:26:43.285Z,88.70
2017-10-08T04:27:45.813Z,88.80
2017-10-08T04:28:48.372Z,89.00
2017-10-08T04:29:50.926Z,89.10
2017-10-08T04:30:53.443Z,89.20
2017-10-08T04:31:56.083Z,89.30
2017-10-08T04:32:58.614Z,89.50
2017-10-08T04:34:01.166Z,89.80
2017-10-08T04:35:04.473Z,89.80
2017-10-08T04:36:07.010Z,89.80
2017-10-08T04:37:09.543Z,89.80
2017-10-08T04:38:12.053Z,89.60
2017-10-08T04:39:15.392Z,89.80
2017-10-08T04:40:17.920Z,90.00
2017-10-08T04:41:20.448Z,89.90
2017-10-08T04:42:22.965Z,90.00
2017-10-08T04:43:25.527Z,89.70
2017-10-08T04:44:28.065Z,89.50
2017-10-08T04:45:31.346Z,89.40
2017-10-08T04:46:34.678Z,89.50
2017-10-08T04:47:37.232Z,89.50
2017-10-08T04:48:39.745Z,89.50
2017-10-08T04:49:42.268Z,89.70
2017-10-08T04:50:44.782Z,89.70
2017-10-08T04:51:47.336Z,89.90
2017-10-08T04:52:49.857Z,90.00
2017-10-08T04:53:52.384Z,90.00
2017-10-08T04:54:55.683Z,90.10
2017-10-08T04:55:58.961Z,90.10
2017-10-08T04:57:02.297Z,90.20
2017-10-08T04:58:04.832Z,90.20
2017-10-08T04:59:07.405Z,90.10
2017-10-08T05:00:09.921Z,90.20
2017-10-08T05:01:12.438Z,90.20
2017-10-08T05:02:15.008Z,90.20
2017-10-08T05:03:17.545Z,90.10
2017-10-08T05:04:20.113Z,90.10
2017-10-08T05:05:23.405Z,90.10
2017-10-08T05:06:25.940Z,90.10
2017-10-08T05:07:28.509Z,90.20
2017-10-08T05:08:31.036Z,90.10
2017-10-08T05:09:33.564Z,90.10
2017-10-08T05:10:36.848Z,90.00
2017-10-08T05:11:40.139Z,90.00
2017-10-08T05:12:42.712Z,90.00
2017-10-08T05:13:45.237Z,90.20
2017-10-08T05:14:47.758Z,90.10
2017-10-08T05:15:50.466Z,90.20
2017-10-08T05:16:52.986Z,90.00
2017-10-08T05:17:55.512Z,90.00
2017-10-08T05:18:58.039Z,89.90
2017-10-08T05:20:00.563Z,89.40
2017-10-08T05:21:03.113Z,89.70
2017-10-08T05:22:06.419Z,89.60
2017-10-08T05:23:09.014Z,89.60
2017-10-08T05:24:11.526Z,89.50
2017-10-08T05:25:14.086Z,89.40
2017-10-08T05:26:16.606Z,89.30
2017-10-08T05:27:19.158Z,89.40
2017-10-08T05:28:21.673Z,89.30
2017-10-08T05:29:24.193Z,89.50
2017-10-08T05:30:26.736Z,89.00
2017-10-08T05:31:29.253Z,89.10
2017-10-08T05:32:31.810Z,89.10
2017-10-08T05:33:34.333Z,89.20
2017-10-08T05:34:37.653Z,88.60
2017-10-08T05:35:40.192Z,88.60
2017-10-08T05:36:42.722Z,88.30
2017-10-08T05:37:45.289Z,88.10
2017-10-08T05:38:47.831Z,88.10
2017-10-08T05:39:50.360Z,88.70
2017-10-08T05:40:52.890Z,88.10
2017-10-08T05:41:55.449Z,87.80
2017-10-08T05:42:58.014Z,88.40
2017-10-08T05:44:00.533Z,87.80
2017-10-08T05:45:03.066Z,87.80
2017-10-08T05:46:06.358Z,87.80
2017-10-08T05:47:08.874Z,87.80
2017-10-08T05:48:11.433Z,87.90
2017-10-08T05:49:13.946Z,88.00
2017-10-08T05:50:17.241Z,88.90
2017-10-08T05:51:20.538Z,87.90
2017-10-08T05:52:23.063Z,87.90
2017-10-08T05:53:25.609Z,88.10
2017-10-08T05:54:28.129Z,88.00
2017-10-08T05:55:30.661Z,88.00
2017-10-08T05:56:33.188Z,88.10
2017-10-08T05:57:35.764Z,88.00
2017-10-08T05:58:38.282Z,87.80
2017-10-08T05:59:41.582Z,88.00
2017-10-08T06:00:44.097Z,88.00
2017-10-08T06:01:46.612Z,88.10
2017-10-08T06:02:49.161Z,88.30
2017-10-08T06:03:51.682Z,88.00
2017-10-08T06:04:54.216Z,88.00
2017-10-08T06:05:56.740Z,88.10
2017-10-08T06:06:59.261Z,87.80
2017-10-08T06:08:01.816Z,87.90
2017-10-08T06:09:04.355Z,88.00
2017-10-08T06:10:07.658Z,88.20
2017-10-08T06:11:10.178Z,88.20
2017-10-08T06:12:12.702Z,88.10
2017-10-08T06:13:15.265Z,88.10
2017-10-08T06:14:17.780Z,87.80
2017-10-08T06:15:20.312Z,87.80
2017-10-08T06:16:22.842Z,88.10
2017-10-08T06:17:26.140Z,88.10
2017-10-08T06:18:28.698Z,88.10
2017-10-08T06:19:31.218Z,88.40
2017-10-08T06:20:33.737Z,88.10
2017-10-08T06:21:36.266Z,88.30
2017-10-08T06:22:38.788Z,88.10
2017-10-08T06:23:41.358Z,87.90
2017-10-08T06:24:43.889Z,87.90
2017-10-08T06:25:47.177Z,88.00
2017-10-08T06:26:49.699Z,87.90
2017-10-08T06:27:52.981Z,87.60
2017-10-08T06:28:55.546Z,87.60
2017-10-08T06:29:58.061Z,87.70
2017-10-08T06:31:00.600Z,87.40
2017-10-08T06:32:03.117Z,87.40
2017-10-08T06:33:05.648Z,87.60
2017-10-08T06:34:08.971Z,87.60
2017-10-08T06:35:11.524Z,87.60
2017-10-08T06:36:14.870Z,87.90
2017-10-08T06:37:17.408Z,87.20
2017-10-08T06:38:19.954Z,87.10
2017-10-08T06:39:22.501Z,87.40
2017-10-08T06:40:25.064Z,86.90
2017-10-08T06:41:27.601Z,86.80
2017-10-08T06:42:30.135Z,86.40
2017-10-08T06:43:32.666Z,86.80
2017-10-08T06:44:35.197Z,86.90
2017-10-08T06:45:37.780Z,86.70
2017-10-08T06:46:41.080Z,86.40
2017-10-08T06:47:43.604Z,86.30
2017-10-08T06:48:46.122Z,86.40
2017-10-08T06:49:48.650Z,86.50
2017-10-08T06:50:51.989Z,86.50
2017-10-08T06:51:54.531Z,86.40
2017-10-08T06:52:57.062Z,86.50
2017-10-08T06:53:59.607Z,86.30
2017-10-08T06:55:02.129Z,85.70
2017-10-08T06:56:04.666Z,86.00
2017-10-08T06:57:07.219Z,85.90
2017-10-08T06:58:09.741Z,85.90
2017-10-08T06:59:12.258Z,86.20
2017-10-08T07:00:14.777Z,86.20
2017-10-08T07:01:17.300Z,86.40
2017-10-08T07:02:20.625Z,85.70
2017-10-08T07:03:23.149Z,85.80
2017-10-08T07:04:26.427Z,85.80
2017-10-08T07:05:29.716Z,86.40
2017-10-08T07:06:33.006Z,85.90
2017-10-08T07:07:36.393Z,86.10
2017-10-08T07:08:38.950Z,86.10
2017-10-08T07:09:42.242Z,86.80
2017-10-08T07:10:45.537Z,86.40
2017-10-08T07:11:48.055Z,86.40
2017-10-08T07:12:50.633Z,86.50
2017-10-08T07:13:53.176Z,86.60
2017-10-08T07:14:55.709Z,87.00
2017-10-08T07:15:58.247Z,86.90
2017-10-08T07:17:01.534Z,87.00
2017-10-08T07:18:04.901Z,86.80
2017-10-08T07:19:07.417Z,86.80
2017-10-08T07:20:09.945Z,87.20
2017-10-08T07:21:13.230Z,87.10
2017-10-08T07:22:16.578Z,86.80
2017-10-08T07:23:19.113Z,86.80
2017-10-08T07:24:21.643Z,86.80
2017-10-08T07:25:24.947Z,87.60
2017-10-08T07:26:27.475Z,87.70
2017-10-08T07:27:30.038Z,87.10
2017-10-08T07:28:32.581Z,86.50
2017-10-08T07:29:35.109Z,86.40
2017-10-08T07:30:37.645Z,86.40
2017-10-08T07:31:40.162Z,86.60
2017-10-08T07:32:42.722Z,86.80
2017-10-08T07:33:45.239Z,86.20
2017-10-08T07:34:47.816Z,86.30
2017-10-08T07:35:51.106Z,86.20
2017-10-08T07:36:54.394Z,86.30
2017-10-08T07:37:57.682Z,86.50
2017-10-08T07:39:00.988Z,86.80
2017-10-08T07:40:03.554Z,86.80
2017-10-08T07:41:06.096Z,86.30
2017-10-08T07:42:09.406Z,86.00
2017-10-08T07:43:11.969Z,86.00
2017-10-08T07:44:14.493Z,86.20
2017-10-08T07:45:17.019Z,85.70
2017-10-08T07:47:28.368Z,86.10
2017-10-08T07:48:30.925Z,86.40
2017-10-08T07:49:34.222Z,86.00
2017-10-08T07:50:36.749Z,86.00
2017-10-08T07:51:39.323Z,85.50
2017-10-08T07:52:41.851Z,85.40
2017-10-08T07:53:44.373Z,85.40
2017-10-08T07:54:47.656Z,85.50
2017-10-08T07:55:50.951Z,86.00
2017-10-08T07:56:53.512Z,86.00
2017-10-08T07:57:56.789Z,85.00
2017-10-08T07:59:00.083Z,84.70
2017-10-08T08:00:02.602Z,84.70
2017-10-08T08:01:05.126Z,85.30
2017-10-08T08:02:07.690Z,85.60
2017-10-08T08:03:10.208Z,85.20
2017-10-08T08:04:12.723Z,84.90
2017-10-08T08:05:15.241Z,84.80
2017-10-08T08:06:17.778Z,84.60
2017-10-08T08:07:20.349Z,85.10
2017-10-08T08:08:22.874Z,84.90
2017-10-08T08:09:26.156Z,84.90
2017-10-08T08:10:28.688Z,84.90
2017-10-08T08:11:31.197Z,85.00
2017-10-08T08:12:33.759Z,84.80
2017-10-08T08:13:36.315Z,84.60
2017-10-08T08:14:39.602Z,84.60
2017-10-08T08:15:42.126Z,84.60
2017-10-08T08:16:44.641Z,84.50
2017-10-08T08:17:47.209Z,84.20
2017-10-08T08:18:49.729Z,84.20
2017-10-08T08:19:52.262Z,84.60
2017-10-08T08:20:54.786Z,84.00
2017-10-08T08:21:58.086Z,84.10
2017-10-08T08:23:00.649Z,84.10
2017-10-08T08:24:03.214Z,83.60
2017-10-08T08:25:05.742Z,83.90
2017-10-08T08:26:08.268Z,84.60
2017-10-08T08:27:10.782Z,84.20
2017-10-08T08:28:13.332Z,84.20
2017-10-08T08:29:15.854Z,84.00
2017-10-08T08:30:18.406Z,84.00
2017-10-08T08:31:21.705Z,84.60
2017-10-08T08:32:24.222Z,84.50
2017-10-08T08:33:26.771Z,84.20
2017-10-08T08:34:29.290Z,83.40
2017-10-08T08:35:31.859Z,83.40
2017-10-08T08:36:34.408Z,84.00
2017-10-08T08:37:37.693Z,84.40
2017-10-08T08:38:40.978Z,84.80
2017-10-08T08:39:44.269Z,84.90
2017-10-08T08:40:47.589Z,84.70
2017-10-08T08:41:50.174Z,84.70
2017-10-08T08:42:52.690Z,84.90
2017-10-08T08:43:55.977Z,84.80
2017-10-08T08:44:58.499Z,84.80
2017-10-08T08:46:01.022Z,85.30
2017-10-08T08:47:03.606Z,85.80
2017-10-08T08:48:06.901Z,86.00
2017-10-08T08:49:09.452Z,86.10
2017-10-08T08:50:11.985Z,86.40
2017-10-08T08:51:15.269Z,85.50
2017-10-08T08:52:17.794Z,85.50
2017-10-08T08:53:20.311Z,86.40
2017-10-08T08:54:22.873Z,86.80
2017-10-08T08:55:25.450Z,86.70
2017-10-08T08:56:27.982Z,86.80
2017-10-08T08:57:30.493Z,87.10
2017-10-08T08:58:33.027Z,87.80
2017-10-08T08:59:36.311Z,85.20
2017-10-08T09:00:39.631Z,85.40
2017-10-08T09:01:42.191Z,85.40
2017-10-08T09:02:44.710Z,84.90
2017-10-08T09:03:47.229Z,85.60
2017-10-08T09:04:49.757Z,85.30
2017-10-08T09:05:53.041Z,86.50
2017-10-08T09:06:56.364Z,86.20
2017-10-08T09:07:58.892Z,86.20
2017-10-08T09:09:02.184Z,86.80
2017-10-08T09:10:04.727Z,86.70
2017-10-08T09:11:07.302Z,87.80
2017-10-08T09:12:10.585Z,87.90
2017-10-08T09:13:13.869Z,87.80
2017-10-08T09:14:17.158Z,88.00
2017-10-08T09:15:20.442Z,87.30
2017-10-08T09:16:23.021Z,87.20
2017-10-08T09:17:25.546Z,87.00
2017-10-08T09:18:28.065Z,87.20
2017-10-08T09:19:30.621Z,86.60
2017-10-08T09:20:33.143Z,86.20
2017-10-08T09:21:35.687Z,86.00
2017-10-08T09:22:38.207Z,85.70
2017-10-08T09:23:41.536Z,84.90
2017-10-08T09:24:44.070Z,85.00
2017-10-08T09:25:46.593Z,84.90
2017-10-08T09:26:49.114Z,84.40
2017-10-08T09:27:51.645Z,84.50
2017-10-08T09:28:54.961Z,84.80
2017-10-08T09:29:57.525Z,84.80
2017-10-08T09:31:00.057Z,83.90
2017-10-08T09:32:03.409Z,83.80
2017-10-08T09:33:05.939Z,83.80
2017-10-08T09:34:08.466Z,83.80
2017-10-08T09:35:11.029Z,84.70
2017-10-08T09:36:13.573Z,84.30
2017-10-08T09:37:16.089Z,84.40
2017-10-08T09:38:19.543Z,84.70
2017-10-08T09:39:22.071Z,84.70
2017-10-08T09:40:24.638Z,84.20
2017-10-08T09:41:27.158Z,85.10
2017-10-08T09:42:30.462Z,85.20
2017-10-08T09:43:32.995Z,85.20
2017-10-08T09:44:35.532Z,85.50
2017-10-08T09:45:38.087Z,85.90
2017-10-08T09:46:40.606Z,85.40
2017-10-08T09:47:43.893Z,85.30
2017-10-08T09:48:47.179Z,84.10
2017-10-08T09:49:49.702Z,84.20
2017-10-08T09:50:52.263Z,84.40
2017-10-08T09:51:54.780Z,84.40
2017-10-08T09:52:57.315Z,83.40
2017-10-08T09:53:59.829Z,83.60
2017-10-08T09:55:02.350Z,83.20
2017-10-08T09:56:05.099Z,83.70
2017-10-08T09:57:07.635Z,83.20
2017-10-08T09:58:10.193Z,82.60
2017-10-08T09:59:12.718Z,83.20
2017-10-08T10:00:15.338Z,82.80
2017-10-08T10:01:17.866Z,82.90
2017-10-08T10:02:20.538Z,82.40
2017-10-08T10:03:23.893Z,83.80
2017-10-08T10:04:26.421Z,82.90
2017-10-08T10:05:28.944Z,80.90
2017-10-08T10:06:31.473Z,80.90
2017-10-08T10:07:34.005Z,81.50
2017-10-08T10:08:36.589Z,81.90
2017-10-08T10:09:39.137Z,80.60
2017-10-08T10:10:42.426Z,80.80
2017-10-08T10:11:44.966Z,80.80
2017-10-08T10:12:48.270Z,80.60
2017-10-08T10:13:50.842Z,80.60
2017-10-08T10:14:53.379Z,79.40
2017-10-08T10:15:55.898Z,79.00
2017-10-08T10:16:58.510Z,79.00
2017-10-08T10:18:01.037Z,78.20
2017-10-08T10:19:03.569Z,75.30
2017-10-08T10:20:06.857Z,78.30
2017-10-08T10:21:09.392Z,78.30
2017-10-08T10:22:11.955Z,77.20
2017-10-08T10:23:14.478Z,77.50
2017-10-08T10:24:16.998Z,78.40
2017-10-08T10:25:20.292Z,77.40
2017-10-08T10:26:23.586Z,75.30
2017-10-08T10:27:26.156Z,75.20
2017-10-08T10:28:28.689Z,75.40
2017-10-08T10:29:31.223Z,76.40
2017-10-08T10:30:33.755Z,78.60
2017-10-08T10:31:36.292Z,75.70
2017-10-08T10:32:39.615Z,76.80
2017-10-08T10:33:42.150Z,76.80
2017-10-08T10:34:45.437Z,76.20
2017-10-08T10:35:48.733Z,76.80
2017-10-08T10:36:51.296Z,76.90
2017-10-08T10:37:54.586Z,75.30
2017-10-08T10:38:57.117Z,75.30
2017-10-08T10:39:59.636Z,73.90
2017-10-08T10:41:02.153Z,74.50
2017-10-08T10:42:04.729Z,74.60
2017-10-08T10:43:08.019Z,75.20
2017-10-08T10:44:11.313Z,75.90
2017-10-08T10:45:13.846Z,75.90
2017-10-08T10:46:16.438Z,75.60
2017-10-08T10:47:19.762Z,76.30
2017-10-08T10:48:22.448Z,76.20
2017-10-08T10:49:25.014Z,75.80
2017-10-08T10:50:27.543Z,74.90
2017-10-08T10:51:30.065Z,74.80
2017-10-08T10:52:32.594Z,74.80
2017-10-08T10:53:35.124Z,75.80
2017-10-08T10:54:37.702Z,77.10
2017-10-08T10:55:40.225Z,75.20
2017-10-08T10:56:42.770Z,75.20
2017-10-08T10:57:45.301Z,76.60
2017-10-08T10:58:47.820Z,76.30
2017-10-08T10:59:50.381Z,76.10
2017-10-08T11:00:52.897Z,76.40
2017-10-08T11:01:55.411Z,75.00
2017-10-08T11:02:57.936Z,74.60
2017-10-08T11:04:00.451Z,74.60
2017-10-08T11:05:03.006Z,74.30
2017-10-08T11:06:05.538Z,74.50
2017-10-08T11:07:08.058Z,75.30
2017-10-08T11:08:12.100Z,75.10
2017-10-08T11:09:14.645Z,75.00
2017-10-08T11:10:17.962Z,72.70
2017-10-08T11:11:20.536Z,72.70
2017-10-08T11:12:23.095Z,73.10
2017-10-08T11:13:25.662Z,73.80
2017-10-08T11:14:28.189Z,74.40
2017-10-08T11:15:31.529Z,74.20
2017-10-08T11:16:34.045Z,74.10
2017-10-08T11:17:37.381Z,75.80
2017-10-08T11:18:39.943Z,75.80
2017-10-08T11:19:42.468Z,75.30
2017-10-08T11:20:45.753Z,73.40
2017-10-08T11:21:48.281Z,73.40
2017-10-08T11:22:50.806Z,73.10
2017-10-08T11:23:53.384Z,73.50
2017-10-08T11:24:55.897Z,73.10
2017-10-08T11:25:59.181Z,73.30
2017-10-08T11:27:02.467Z,71.80
2017-10-08T11:28:05.762Z,72.70
2017-10-08T11:29:08.317Z,72.70
2017-10-08T11:30:11.957Z,72.40
2017-10-08T11:31:14.580Z,72.40
2017-10-08T11:32:17.864Z,71.80
2017-10-08T11:33:21.157Z,72.00
2017-10-08T11:34:24.510Z,72.80
2017-10-08T11:35:27.025Z,72.90
2017-10-08T11:36:29.551Z,72.30
2017-10-08T11:37:32.138Z,73.60
2017-10-08T11:38:34.665Z,72.60
2017-10-08T11:39:37.221Z,72.90
2017-10-08T11:40:39.846Z,73.00
2017-10-08T11:41:42.388Z,71.90
2017-10-08T11:42:44.926Z,73.10
2017-10-08T11:43:47.454Z,72.70
2017-10-08T11:44:49.985Z,73.50
2017-10-08T11:45:52.565Z,73.60
2017-10-08T11:46:55.870Z,73.30
2017-10-08T11:47:58.430Z,73.30
2017-10-08T11:49:00.957Z,73.20
2017-10-08T11:50:03.490Z,72.70
2017-10-08T11:51:06.039Z,73.50
2017-10-08T11:52:08.569Z,69.50
2017-10-08T11:53:11.901Z,71.10
2017-10-08T11:54:14.422Z,71.00
2017-10-08T11:55:17.714Z,70.40
2017-10-08T11:56:21.505Z,70.10
2017-10-08T11:57:24.790Z,70.20
2017-10-08T11:58:28.114Z,70.50
2017-10-08T11:59:30.644Z,70.60
2017-10-08T12:00:33.925Z,71.60
2017-10-08T12:01:37.234Z,69.90
2017-10-08T12:02:39.800Z,69.90
2017-10-08T12:03:42.363Z,69.70
2017-10-08T12:04:44.893Z,70.70
2017-10-08T12:05:47.424Z,71.80
2017-10-08T12:06:49.948Z,72.20
2017-10-08T12:07:52.459Z,71.90
2017-10-08T12:08:55.018Z,73.40
2017-10-08T12:09:57.542Z,74.10
2017-10-08T12:11:00.065Z,71.70
2017-10-08T12:12:02.634Z,72.10
2017-10-08T12:13:05.154Z,70.70
2017-10-08T12:14:07.706Z,70.40
2017-10-08T12:15:10.998Z,71.80
2017-10-08T12:16:13.522Z,71.80
2017-10-08T12:17:16.101Z,70.60
2017-10-08T12:18:19.453Z,71.80
2017-10-08T12:19:22.015Z,71.80
2017-10-08T12:20:24.539Z,70.30
2017-10-08T12:21:27.835Z,69.00
2017-10-08T12:22:30.514Z,69.10
2017-10-08T12:23:33.038Z,68.90
2017-10-08T12:24:36.330Z,69.50
2017-10-08T12:25:39.637Z,69.10
2017-10-08T12:26:42.168Z,69.00
2017-10-08T12:27:44.732Z,69.60
2017-10-08T12:28:47.259Z,68.80
2017-10-08T12:29:49.773Z,68.80
2017-10-08T12:30:53.076Z,70.90
2017-10-08T12:31:55.609Z,70.90
2017-10-08T12:32:58.164Z,72.10
2017-10-08T12:34:00.695Z,70.40
2017-10-08T12:35:03.266Z,69.70
2017-10-08T12:36:05.799Z,69.30
2017-10-08T12:37:08.316Z,68.80
2017-10-08T12:38:10.834Z,69.90
2017-10-08T12:39:13.385Z,70.90
2017-10-08T12:40:15.938Z,71.30
2017-10-08T12:41:18.473Z,71.60
2017-10-08T12:42:21.021Z,72.00
2017-10-08T12:43:23.550Z,72.10
2017-10-08T12:44:26.125Z,72.50
2017-10-08T12:45:29.410Z,73.10
2017-10-08T12:46:31.931Z,73.10
2017-10-08T12:47:34.462Z,72.20
2017-10-08T12:48:36.996Z,70.30
2017-10-08T12:49:39.566Z,70.30
2017-10-08T12:50:42.861Z,71.90
2017-10-08T12:51:46.154Z,70.30
2017-10-08T12:52:48.681Z,70.30
2017-10-08T12:55:00.234Z,69.80
2017-10-08T12:56:02.763Z,69.80
2017-10-08T12:57:06.057Z,70.60
2017-10-08T12:58:08.591Z,70.50
2017-10-08T12:59:11.117Z,70.50
2017-10-08T13:00:13.675Z,70.20
2017-10-08T13:01:16.190Z,69.00
2017-10-08T13:02:19.581Z,70.20
2017-10-08T13:03:22.874Z,68.80
2017-10-08T13:04:26.178Z,67.50
2017-10-08T13:05:28.741Z,67.40
2017-10-08T13:06:31.299Z,68.20
2017-10-08T13:07:33.817Z,68.90
2017-10-08T13:08:36.362Z,67.80
2017-10-08T13:09:38.894Z,68.30
2017-10-08T13:10:41.429Z,68.40
2017-10-08T13:11:43.990Z,68.10
2017-10-08T13:12:46.510Z,68.10
2017-10-08T13:13:49.042Z,68.50
2017-10-08T13:14:52.330Z,68.60
2017-10-08T13:15:55.650Z,69.80
2017-10-08T13:16:58.222Z,69.80
2017-10-08T13:18:00.797Z,69.80
2017-10-08T13:19:03.334Z,68.70
2017-10-08T13:20:05.867Z,68.70
2017-10-08T13:21:08.390Z,66.40
2017-10-08T13:22:10.908Z,62.90
2017-10-08T13:23:14.260Z,58.00
2017-10-08T13:24:16.799Z,58.70
2017-10-08T13:25:19.321Z,57.10
2017-10-08T13:26:23.021Z,53.30
2017-10-08T13:27:26.318Z,54.10
2017-10-08T13:28:28.874Z,54.10
2017-10-08T13:29:32.176Z,52.30
2017-10-08T13:30:34.753Z,52.20